Archival Weather

Tokyo Intl

Tokyo, Japan (RJTT)

Report from: Friday, September 22, 2023 12:30 PM JST
Current time: Saturday, March 2, 2024 7:08 PM JST

Current weather – Weather history – Daily summaries
Weather forecast

Temperature30.0°C (86.0°F)
Heat index34.2°C (93.6°F)
Dew point23.0°C (73.4°F)
Winds 5 kts (2.6 m/s, 5.8 mph) North (360°)
Visibility6.2 mi. (10 km)
Clouds Scattered clouds 3,000 ft. (914 m)
Ceiling: Broken clouds 15,000 ft. (4,572 m)
Altimeter29.80 in.Hg (1009 mB)
Relative humidity66 %
Density altitude2,239 ft. (682 m)
Remarks No significant changes expected in the next two hours
Flight conditions Visual Meteorological Conditions
Raw dataRJTT 220330Z 36005KT 9999 SCT030 BKN150 30/23 Q1009 NOSIG
An error has occurred. This application may no longer respond until reloaded. Reload 🗙